Terminal Aerodrome Forecast
Issued by NWS

Home | Current Version | Previous Version | Graphics & Text | Print | Product List | Glossary Off
Versions: 1 2 3 4 5 6 7 8 9 10 11 12 13 14 15 16 17 18 19 20 21 22

633
FTUS45 KGGW 290520
TAFGDV
TAF
KGDV 290520Z 2906/3006 26005KT P6SM BKN120
     FM300000 19006KT P6SM BKN130
     FM300400 21005KT P6SM SCT090=

USA.gov is the U.S. government's official web portal to all federal, state and local government web resources and services.